Time;durP1;ratioP1;P1;durP2;ratioP2;P2;SDS_P1;SDS_P2;PMS_P1;PMS_P2;Temp;Humidity;BMP_temperature;BMP_pressure;BME280_temperature;BME280_humidity;BME280_pressure;Samples;Min_cycle;Max_cycle;Signal;HPM_P1;HPM_P2
2022/01/02 00:01:48;;;;;;;8.30;3.57;;;;;;;;;;4993483;28;20049;-75
2022/01/02 00:04:18;;;;;;;5.53;3.20;;;;;;;;;;4977492;28;20019;-75
2022/01/02 00:06:48;;;;;;;9.50;3.47;;;;;;;;;;4977611;28;20054;-75
2022/01/02 00:09:20;;;;;;;5.23;3.37;;;;;;;;;;4993721;28;20027;-75
2022/01/02 00:11:47;;;;;;;5.13;3.00;;;;;;;;;;4988731;28;20027;-76
2022/01/02 00:14:15;;;;;;;6.57;3.13;;;;;;;;;;4990054;28;20035;-74
2022/01/02 00:16:41;;;;;;;7.70;3.00;;;;;;;;;;4994856;28;20095;-75
2022/01/02 00:19:16;;;;;;;6.23;3.70;;;;;;;;;;4996324;28;20046;-75
2022/01/02 00:21:45;;;;;;;4.57;3.07;;;;;;;;;;4993159;28;20034;-75
2022/01/02 00:24:16;;;;;;;7.37;3.30;;;;;;;;;;4998603;28;20034;-74
2022/01/02 00:26:45;;;;;;;5.47;3.10;;;;;;;;;;4998847;28;20018;-75
2022/01/02 00:29:12;;;;;;;8.63;3.40;;;;;;;;;;4991447;28;20260;-74
2022/01/02 00:31:39;;;;;;;4.87;2.43;;;;;;;;;;4980716;28;20026;-75
2022/01/02 00:34:05;;;;;;;5.27;2.93;;;;;;;;;;4996546;28;20063;-75
2022/01/02 00:36:32;;;;;;;5.47;2.90;;;;;;;;;;4979629;28;20039;-76
2022/01/02 00:38:59;;;;;;;5.47;2.40;;;;;;;;;;4980714;28;20019;-75
2022/01/02 00:41:34;;;;;;;5.17;2.93;;;;;;;;;;4997292;28;20091;-75
2022/01/02 00:44:08;;;;;;;4.50;2.80;;;;;;;;;;4981175;28;20039;-74
2022/01/02 00:46:37;;;;;;;4.73;2.97;;;;;;;;;;4980411;28;20026;-75
2022/01/02 00:49:05;;;;;;;6.83;2.70;;;;;;;;;;4993129;28;20032;-76
2022/01/02 00:51:35;;;;;;;5.43;3.10;;;;;;;;;;4993887;28;20044;-74
2022/01/02 00:54:02;;;;;;;4.50;2.63;;;;;;;;;;4996675;28;20066;-75
2022/01/02 00:56:29;;;;;;;6.47;2.47;;;;;;;;;;4979334;28;20015;-74
2022/01/02 00:59:02;;;;;;;5.93;2.90;;;;;;;;;;4980345;28;20041;-75
2022/01/02 01:01:30;;;;;;;4.67;2.40;;;;;;;;;;4991378;28;20026;-74
2022/01/02 01:03:56;;;;;;;5.73;2.63;;;;;;;;;;4996525;28;20022;-74
2022/01/02 01:06:26;;;;;;;8.33;2.87;;;;;;;;;;4974436;28;20045;-74
2022/01/02 01:08:57;;;;;;;9.03;3.40;;;;;;;;;;4996149;28;20031;-75
2022/01/02 01:11:27;;;;;;;8.33;3.13;;;;;;;;;;4991697;28;20050;-76
2022/01/02 01:13:54;;;;;;;6.10;3.00;;;;;;;;;;4996212;28;20057;-74
2022/01/02 01:16:20;;;;;;;3.67;2.60;;;;;;;;;;4991979;28;20030;-75
2022/01/02 01:18:47;;;;;;;3.73;2.90;;;;;;;;;;4992009;28;20037;-75
2022/01/02 01:21:13;;;;;;;5.97;3.40;;;;;;;;;;4980038;28;20027;-76
2022/01/02 01:23:42;;;;;;;5.27;2.83;;;;;;;;;;4991898;28;20036;-76
2022/01/02 01:26:10;;;;;;;5.60;3.00;;;;;;;;;;4981589;28;20027;-75
2022/01/02 01:28:36;;;;;;;7.83;3.83;;;;;;;;;;4997426;28;20030;-75
2022/01/02 01:31:03;;;;;;;4.63;2.53;;;;;;;;;;4991985;28;20050;-74
2022/01/02 01:33:30;;;;;;;5.67;2.90;;;;;;;;;;4991904;28;20197;-74
2022/01/02 01:35:56;;;;;;;5.80;3.30;;;;;;;;;;4997324;28;20042;-76
2022/01/02 01:38:22;;;;;;;5.80;2.67;;;;;;;;;;4992242;28;20038;-75
2022/01/02 01:40:52;;;;;;;5.30;3.37;;;;;;;;;;4980091;28;20027;-75
2022/01/02 01:43:23;;;;;;;5.43;2.87;;;;;;;;;;4993165;28;20039;-76
2022/01/02 01:45:49;;;;;;;3.73;2.60;;;;;;;;;;4981313;28;20030;-76
2022/01/02 01:48:15;;;;;;;4.90;2.80;;;;;;;;;;4998283;28;20029;-75
2022/01/02 01:50:42;;;;;;;3.83;2.47;;;;;;;;;;4993289;28;20401;-75
2022/01/02 01:53:09;;;;;;;4.07;2.37;;;;;;;;;;4996289;28;20026;-74
2022/01/02 01:55:36;;;;;;;5.97;2.77;;;;;;;;;;4995465;28;20014;-75
2022/01/02 01:58:03;;;;;;;6.03;3.10;;;;;;;;;;4980587;28;20049;-75
2022/01/02 02:00:32;;;;;;;4.60;2.83;;;;;;;;;;4990701;28;20027;-75
2022/01/02 02:02:58;;;;;;;3.73;2.20;;;;;;;;;;4982410;28;20042;-75
2022/01/02 02:05:27;;;;;;;3.73;2.87;;;;;;;;;;4996121;28;20030;-75
2022/01/02 02:07:53;;;;;;;4.60;2.97;;;;;;;;;;4980147;28;20023;-75
2022/01/02 02:10:25;;;;;;;5.50;2.47;;;;;;;;;;4980862;28;20026;-75
2022/01/02 02:12:53;;;;;;;4.25;2.80;;;;;;;;;;4996815;28;20047;-75
2022/01/02 02:15:19;;;;;;;5.90;2.63;;;;;;;;;;4995672;28;20018;-76
2022/01/02 02:17:47;;;;;;;4.93;2.97;;;;;;;;;;4992358;28;20098;-75
2022/01/02 02:20:24;;;;;;;4.30;2.80;;;;;;;;;;4976291;28;20034;-76
2022/01/02 02:22:53;;;;;;;4.70;3.10;;;;;;;;;;4991243;28;20026;-75
2022/01/02 02:25:20;;;;;;;5.37;2.87;;;;;;;;;;4979968;28;20019;-75
2022/01/02 02:27:54;;;;;;;8.03;2.90;;;;;;;;;;4996032;28;20049;-76
2022/01/02 02:30:20;;;;;;;5.83;2.47;;;;;;;;;;4996618;28;20549;-76
2022/01/02 02:32:46;;;;;;;7.13;3.27;;;;;;;;;;4975111;28;20042;-75
2022/01/02 02:35:13;;;;;;;5.77;3.60;;;;;;;;;;4993627;28;20053;-75
2022/01/02 02:37:43;;;;;;;6.73;3.00;;;;;;;;;;4973367;28;20027;-75
2022/01/02 02:40:13;;;;;;;6.03;2.77;;;;;;;;;;4995465;28;20018;-74
2022/01/02 02:42:49;;;;;;;7.00;2.60;;;;;;;;;;4980413;28;20038;-75
2022/01/02 02:51:05;;;;;;;4.90;2.90;;;;;;;;;;4995802;28;20070;-76
2022/01/02 02:53:31;;;;;;;4.20;2.87;;;;;;;;;;4994863;28;20061;-75
2022/01/02 02:55:59;;;;;;;6.17;2.73;;;;;;;;;;4996470;28;20019;-75
2022/01/02 03:00:57;;;;;;;8.25;3.05;;;;;;;;;;4995738;28;20043;-78
2022/01/02 03:03:23;;;;;;;6.50;3.83;;;;;;;;;;4995949;28;20022;-76
2022/01/02 03:05:49;;;;;;;4.97;3.10;;;;;;;;;;4995884;28;20027;-76
2022/01/02 03:08:16;;;;;;;7.10;3.43;;;;;;;;;;4979160;28;20127;-74
2022/01/02 03:10:42;;;;;;;5.50;3.33;;;;;;;;;;4990334;28;20038;-75
2022/01/02 03:13:08;;;;;;;6.33;3.17;;;;;;;;;;4976354;28;20054;-76
2022/01/02 03:15:34;;;;;;;5.67;3.20;;;;;;;;;;4995472;28;20038;-75
2022/01/02 03:18:00;;;;;;;5.23;3.23;;;;;;;;;;4990294;28;20010;-75
2022/01/02 03:20:26;;;;;;;8.43;3.20;;;;;;;;;;4995845;28;20047;-75
2022/01/02 03:22:52;;;;;;;3.77;2.53;;;;;;;;;;4979206;28;20027;-75
2022/01/02 03:25:18;;;;;;;6.77;3.23;;;;;;;;;;4993826;28;20031;-76
2022/01/02 03:27:45;;;;;;;5.27;3.10;;;;;;;;;;4994359;28;20023;-75
2022/01/02 03:30:12;;;;;;;6.27;2.87;;;;;;;;;;4979570;28;20033;-74
2022/01/02 03:32:38;;;;;;;4.47;2.50;;;;;;;;;;4993231;28;20049;-74
2022/01/02 03:35:05;;;;;;;6.07;3.33;;;;;;;;;;4989769;28;20053;-75
2022/01/02 03:37:33;;;;;;;5.67;3.33;;;;;;;;;;4991040;28;20031;-74
2022/01/02 03:40:02;;;;;;;5.43;3.27;;;;;;;;;;4970541;28;20026;-77
2022/01/02 03:42:28;;;;;;;5.47;3.10;;;;;;;;;;4987816;28;20019;-75
2022/01/02 03:44:57;;;;;;;4.87;3.33;;;;;;;;;;4990057;28;20031;-75
2022/01/02 03:47:23;;;;;;;4.87;2.97;;;;;;;;;;4996291;28;20046;-74
2022/01/02 03:49:49;;;;;;;6.43;3.43;;;;;;;;;;4990760;28;20019;-75
2022/01/02 03:52:15;;;;;;;4.43;2.57;;;;;;;;;;4980779;28;20475;-75
2022/01/02 03:54:41;;;;;;;4.60;2.80;;;;;;;;;;4993439;28;20049;-74
2022/01/02 03:57:07;;;;;;;7.07;3.30;;;;;;;;;;4999751;28;20050;-76
2022/01/02 03:59:34;;;;;;;7.00;3.30;;;;;;;;;;4994183;28;20030;-75
2022/01/02 04:02:02;;;;;;;5.63;3.00;;;;;;;;;;4998464;28;20030;-74
2022/01/02 04:04:30;;;;;;;8.50;3.30;;;;;;;;;;4981755;28;20015;-74
2022/01/02 04:06:56;;;;;;;5.20;3.13;;;;;;;;;;4998587;28;20025;-75
2022/01/02 04:09:22;;;;;;;7.87;3.43;;;;;;;;;;4976404;28;20042;-74
2022/01/02 04:11:48;;;;;;;4.13;2.63;;;;;;;;;;4994447;28;20019;-74
2022/01/02 04:14:14;;;;;;;5.30;3.13;;;;;;;;;;4976096;28;20042;-75
2022/01/02 04:16:40;;;;;;;5.40;3.30;;;;;;;;;;4998260;28;20161;-76
2022/01/02 04:19:07;;;;;;;4.83;3.13;;;;;;;;;;4992749;28;20030;-74
2022/01/02 04:21:33;;;;;;;7.13;3.17;;;;;;;;;;4991831;28;20022;-77
2022/01/02 04:24:01;;;;;;;6.57;3.63;;;;;;;;;;4997697;28;20032;-75
2022/01/02 04:26:27;;;;;;;6.67;3.70;;;;;;;;;;4982663;28;20031;-75
2022/01/02 04:28:55;;;;;;;4.80;2.77;;;;;;;;;;4992612;28;20018;-75
2022/01/02 04:31:21;;;;;;;4.83;2.83;;;;;;;;;;4997141;28;20041;-75
2022/01/02 04:33:47;;;;;;;5.73;3.37;;;;;;;;;;4975342;28;20042;-75
2022/01/02 04:36:14;;;;;;;6.43;3.20;;;;;;;;;;4993067;28;20054;-75
2022/01/02 04:38:42;;;;;;;4.90;2.97;;;;;;;;;;5000709;28;20050;-74
2022/01/02 04:41:08;;;;;;;6.33;3.40;;;;;;;;;;4994254;28;20011;-75
2022/01/02 04:43:34;;;;;;;7.90;3.40;;;;;;;;;;4992879;28;20026;-75
2022/01/02 04:46:00;;;;;;;6.80;3.33;;;;;;;;;;4993509;28;20019;-75
2022/01/02 04:48:26;;;;;;;4.93;3.33;;;;;;;;;;4998254;28;20053;-75
2022/01/02 04:50:52;;;;;;;5.93;3.10;;;;;;;;;;4977485;28;20050;-75
2022/01/02 04:53:20;;;;;;;7.03;3.33;;;;;;;;;;4994024;28;20034;-75
2022/01/02 04:55:46;;;;;;;6.53;3.67;;;;;;;;;;4982845;28;20146;-75
2022/01/02 04:58:12;;;;;;;7.97;3.23;;;;;;;;;;4993870;28;20027;-75
2022/01/02 05:00:38;;;;;;;6.10;3.90;;;;;;;;;;4985412;28;20030;-75
2022/01/02 05:03:04;;;;;;;6.30;3.77;;;;;;;;;;4991102;28;20011;-74
2022/01/02 05:05:30;;;;;;;7.20;3.23;;;;;;;;;;4996152;28;20090;-75
2022/01/02 05:07:56;;;;;;;7.13;3.13;;;;;;;;;;4980611;28;20027;-75
2022/01/02 05:10:22;;;;;;;6.63;3.03;;;;;;;;;;4974895;28;20674;-75
2022/01/02 05:12:48;;;;;;;6.90;4.33;;;;;;;;;;4992766;28;20065;-75
2022/01/02 05:15:15;;;;;;;5.67;3.47;;;;;;;;;;4992657;28;20029;-75
2022/01/02 05:17:41;;;;;;;6.40;3.90;;;;;;;;;;4976648;28;20026;-75
2022/01/02 05:20:07;;;;;;;6.37;3.27;;;;;;;;;;4991343;28;20030;-75
2022/01/02 05:22:33;;;;;;;7.27;3.50;;;;;;;;;;4996207;28;20030;-75
2022/01/02 05:24:59;;;;;;;8.10;3.47;;;;;;;;;;4980513;28;20145;-75
2022/01/02 05:27:25;;;;;;;5.97;3.07;;;;;;;;;;4980945;28;20031;-75
2022/01/02 05:29:51;;;;;;;7.07;3.80;;;;;;;;;;4980161;28;20023;-75
2022/01/02 05:32:17;;;;;;;7.20;4.70;;;;;;;;;;4996770;28;20107;-75
2022/01/02 05:34:43;;;;;;;5.97;3.50;;;;;;;;;;4992007;28;20019;-75
2022/01/02 05:37:09;;;;;;;5.33;3.33;;;;;;;;;;4996284;28;20026;-74
2022/01/02 05:39:35;;;;;;;5.27;3.10;;;;;;;;;;4992956;28;20019;-74
2022/01/02 05:42:01;;;;;;;6.23;3.13;;;;;;;;;;4992287;28;20049;-75
2022/01/02 05:44:27;;;;;;;4.67;3.00;;;;;;;;;;4979471;28;20035;-75
2022/01/02 05:46:53;;;;;;;6.97;3.23;;;;;;;;;;4980202;28;20030;-75
2022/01/02 05:49:24;;;;;;;7.90;3.40;;;;;;;;;;4994748;28;20050;-76
2022/01/02 05:51:53;;;;;;;6.67;3.67;;;;;;;;;;4991797;28;20031;-74
2022/01/02 05:54:19;;;;;;;9.70;3.90;;;;;;;;;;4978717;28;20034;-75
2022/01/02 05:56:45;;;;;;;7.50;4.00;;;;;;;;;;4981586;28;20011;-75
2022/01/02 05:59:11;;;;;;;8.50;3.53;;;;;;;;;;4978762;28;20023;-75
2022/01/02 06:01:37;;;;;;;5.87;3.60;;;;;;;;;;4996492;28;20034;-74
2022/01/02 06:04:03;;;;;;;5.87;3.27;;;;;;;;;;4979264;28;20018;-75
2022/01/02 06:06:29;;;;;;;5.73;3.30;;;;;;;;;;4997261;28;20027;-75
2022/01/02 06:08:55;;;;;;;7.80;3.77;;;;;;;;;;4974907;28;20034;-74
2022/01/02 06:11:21;;;;;;;6.93;4.00;;;;;;;;;;4998264;28;20042;-74
2022/01/02 06:13:47;;;;;;;7.73;3.63;;;;;;;;;;4997240;28;20057;-74
2022/01/02 06:16:13;;;;;;;6.37;3.87;;;;;;;;;;4991571;28;20031;-75
2022/01/02 06:18:40;;;;;;;9.87;3.93;;;;;;;;;;4991424;28;20035;-76
2022/01/02 06:21:06;;;;;;;6.47;3.77;;;;;;;;;;4980431;28;20026;-75
2022/01/02 06:23:32;;;;;;;9.57;4.07;;;;;;;;;;4978869;28;20049;-74
2022/01/02 06:25:58;;;;;;;5.27;3.20;;;;;;;;;;4978517;28;20031;-75
2022/01/02 06:28:26;;;;;;;5.57;3.20;;;;;;;;;;4980696;28;20018;-75
2022/01/02 06:30:52;;;;;;;5.63;3.50;;;;;;;;;;4981684;28;20014;-75
2022/01/02 06:33:18;;;;;;;4.87;3.40;;;;;;;;;;4979326;28;20046;-74
2022/01/02 06:35:44;;;;;;;7.50;3.67;;;;;;;;;;4980681;28;20545;-74
2022/01/02 06:38:12;;;;;;;7.00;3.20;;;;;;;;;;4993636;28;20031;-74
2022/01/02 06:40:39;;;;;;;7.53;3.67;;;;;;;;;;4974423;28;20044;-74
2022/01/02 06:43:05;;;;;;;6.20;3.27;;;;;;;;;;4974605;28;20035;-75
2022/01/02 06:45:34;;;;;;;6.53;3.67;;;;;;;;;;4993965;28;20026;-75
2022/01/02 06:48:00;;;;;;;9.73;3.27;;;;;;;;;;4991003;28;20226;-74
2022/01/02 06:50:26;;;;;;;7.30;2.93;;;;;;;;;;4978181;28;20023;-75
2022/01/02 06:52:55;;;;;;;6.10;3.43;;;;;;;;;;4979003;28;20019;-75
2022/01/02 06:55:21;;;;;;;6.10;3.17;;;;;;;;;;4998506;28;20022;-75
2022/01/02 06:57:47;;;;;;;6.77;3.97;;;;;;;;;;4993240;28;20027;-74
2022/01/02 07:00:13;;;;;;;7.13;3.23;;;;;;;;;;4979031;28;20090;-75
2022/01/02 07:02:39;;;;;;;7.03;3.27;;;;;;;;;;4996845;28;20026;-74
2022/01/02 07:05:05;;;;;;;10.17;3.30;;;;;;;;;;4995680;28;20015;-75
2022/01/02 07:07:32;;;;;;;6.17;3.07;;;;;;;;;;4992693;28;20039;-74
2022/01/02 07:09:58;;;;;;;7.67;3.90;;;;;;;;;;4979552;28;20031;-74
2022/01/02 07:12:24;;;;;;;6.13;3.03;;;;;;;;;;4996521;28;20022;-75
2022/01/02 07:14:53;;;;;;;6.40;3.60;;;;;;;;;;4990546;28;20062;-75
2022/01/02 07:17:19;;;;;;;7.07;3.67;;;;;;;;;;4978863;28;20027;-74
2022/01/02 07:19:45;;;;;;;4.10;2.93;;;;;;;;;;4994380;28;20027;-75
2022/01/02 07:22:11;;;;;;;6.57;3.57;;;;;;;;;;4989525;28;20043;-74
2022/01/02 07:24:38;;;;;;;8.30;3.27;;;;;;;;;;4994237;28;20047;-75
2022/01/02 07:27:04;;;;;;;9.83;4.33;;;;;;;;;;4995621;28;20031;-77
2022/01/02 07:29:33;;;;;;;7.73;3.63;;;;;;;;;;4994585;28;20030;-75
2022/01/02 07:31:59;;;;;;;9.47;3.77;;;;;;;;;;4990017;28;20277;-75
2022/01/02 07:34:25;;;;;;;7.40;3.80;;;;;;;;;;4974715;28;20023;-74
2022/01/02 07:36:51;;;;;;;6.00;3.10;;;;;;;;;;4996496;28;20019;-74
2022/01/02 07:39:17;;;;;;;5.73;3.47;;;;;;;;;;4978865;28;20030;-76
2022/01/02 07:41:44;;;;;;;7.83;3.60;;;;;;;;;;4979060;28;20019;-75
2022/01/02 07:44:10;;;;;;;4.80;2.93;;;;;;;;;;4990616;28;20030;-75
2022/01/02 07:46:36;;;;;;;4.80;2.93;;;;;;;;;;4990938;28;20034;-75
2022/01/02 07:49:02;;;;;;;8.10;3.23;;;;;;;;;;4995237;28;20062;-75
2022/01/02 07:51:28;;;;;;;6.00;2.80;;;;;;;;;;4996335;28;20086;-74
2022/01/02 07:53:54;;;;;;;4.03;2.53;;;;;;;;;;4989799;28;20034;-75
2022/01/02 07:56:20;;;;;;;8.97;3.00;;;;;;;;;;4984041;28;20015;-75
2022/01/02 07:58:46;;;;;;;4.87;2.57;;;;;;;;;;4993640;28;20031;-75
2022/01/02 08:01:12;;;;;;;5.20;2.30;;;;;;;;;;4990360;28;20062;-74
2022/01/02 08:03:38;;;;;;;4.60;2.80;;;;;;;;;;4978402;28;20039;-74
2022/01/02 08:06:04;;;;;;;4.73;2.87;;;;;;;;;;4988894;28;20035;-75
2022/01/02 08:08:30;;;;;;;10.20;3.87;;;;;;;;;;4989325;28;20027;-75
2022/01/02 08:10:56;;;;;;;8.53;2.60;;;;;;;;;;4970984;28;20022;-75
2022/01/02 08:13:22;;;;;;;3.73;2.23;;;;;;;;;;4989329;28;20046;-76
2022/01/02 08:15:49;;;;;;;5.53;2.67;;;;;;;;;;4978499;28;20023;-75
2022/01/02 08:18:15;;;;;;;4.57;2.10;;;;;;;;;;4975032;28;20141;-75
2022/01/02 08:20:45;;;;;;;5.10;2.50;;;;;;;;;;4989501;28;20038;-75
2022/01/02 08:23:12;;;;;;;4.50;2.20;;;;;;;;;;4978076;28;20027;-75
2022/01/02 08:25:38;;;;;;;10.80;2.50;;;;;;;;;;4987773;28;20023;-75
2022/01/02 08:28:04;;;;;;;6.20;2.50;;;;;;;;;;4976823;28;20023;-75
2022/01/02 08:30:30;;;;;;;4.47;2.60;;;;;;;;;;4978613;28;20066;-76
2022/01/02 08:32:56;;;;;;;4.03;2.50;;;;;;;;;;4989513;28;20054;-76
2022/01/02 08:35:22;;;;;;;5.03;2.80;;;;;;;;;;4989305;28;20034;-74
2022/01/02 08:37:48;;;;;;;4.57;2.27;;;;;;;;;;4989467;28;20023;-75
2022/01/02 08:40:14;;;;;;;3.43;2.40;;;;;;;;;;4993106;28;20054;-74
2022/01/02 08:42:40;;;;;;;5.00;2.23;;;;;;;;;;4981447;28;20034;-75
2022/01/02 08:45:07;;;;;;;4.97;2.10;;;;;;;;;;4973355;28;20038;-75
2022/01/02 08:47:33;;;;;;;3.87;2.00;;;;;;;;;;4981326;28;20050;-76
2022/01/02 08:49:59;;;;;;;3.80;1.97;;;;;;;;;;4982621;28;20049;-75
2022/01/02 08:52:25;;;;;;;3.27;2.13;;;;;;;;;;4976527;28;20019;-74
2022/01/02 08:54:51;;;;;;;2.87;1.50;;;;;;;;;;4981067;28;20098;-74
2022/01/02 08:57:18;;;;;;;3.50;1.80;;;;;;;;;;4981867;28;20038;-76
2022/01/02 08:59:44;;;;;;;5.03;2.30;;;;;;;;;;4980093;28;20025;-75
2022/01/02 09:02:12;;;;;;;4.43;1.90;;;;;;;;;;4993175;28;20023;-74
2022/01/02 09:04:38;;;;;;;3.13;1.70;;;;;;;;;;4990247;28;20031;-75
2022/01/02 09:07:04;;;;;;;3.40;2.13;;;;;;;;;;4995825;28;20035;-79
2022/01/02 09:09:30;;;;;;;5.07;2.10;;;;;;;;;;4997391;28;20526;-75
2022/01/02 09:11:56;;;;;;;5.97;2.40;;;;;;;;;;4975195;28;20026;-75
2022/01/02 09:14:22;;;;;;;3.53;1.83;;;;;;;;;;4995835;28;20043;-74
2022/01/02 09:16:48;;;;;;;4.80;2.27;;;;;;;;;;4977328;28;20019;-76
2022/01/02 09:19:14;;;;;;;4.10;1.80;;;;;;;;;;4976997;28;20038;-76
2022/01/02 09:21:43;;;;;;;3.87;1.77;;;;;;;;;;4992915;28;20074;-75
2022/01/02 09:24:09;;;;;;;3.77;2.10;;;;;;;;;;4992740;28;20039;-75
2022/01/02 09:26:35;;;;;;;3.90;1.63;;;;;;;;;;4995874;28;20022;-77
2022/01/02 09:29:01;;;;;;;3.27;1.93;;;;;;;;;;4977152;28;20065;-75
2022/01/02 09:31:27;;;;;;;2.80;1.87;;;;;;;;;;4980602;28;20042;-76
2022/01/02 09:33:53;;;;;;;3.97;1.60;;;;;;;;;;4991538;28;20039;-76
2022/01/02 09:36:19;;;;;;;3.37;2.17;;;;;;;;;;4979482;28;20034;-75
2022/01/02 09:38:47;;;;;;;3.27;1.73;;;;;;;;;;4980522;28;20027;-76
2022/01/02 09:41:13;;;;;;;3.57;2.00;;;;;;;;;;4992552;28;20026;-76
2022/01/02 09:43:39;;;;;;;2.97;1.60;;;;;;;;;;4991176;28;20033;-76
2022/01/02 09:46:05;;;;;;;3.13;1.70;;;;;;;;;;4978398;28;20034;-75
2022/01/02 09:48:31;;;;;;;4.97;2.10;;;;;;;;;;4977967;28;20057;-77
2022/01/02 09:50:58;;;;;;;2.43;1.30;;;;;;;;;;4988156;28;20042;-73
2022/01/02 09:53:24;;;;;;;4.83;1.60;;;;;;;;;;4976682;28;20042;-77
2022/01/02 09:55:51;;;;;;;4.67;1.20;;;;;;;;;;4990349;28;20027;-75
2022/01/02 09:58:18;;;;;;;4.83;1.50;;;;;;;;;;4979092;28;20027;-77
2022/01/02 10:00:48;;;;;;;2.27;1.27;;;;;;;;;;4998012;28;21215;-76
2022/01/02 10:03:16;;;;;;;2.87;1.40;;;;;;;;;;4998140;28;20019;-75
2022/01/02 10:05:48;;;;;;;2.10;1.30;;;;;;;;;;4996001;28;20539;-76
2022/01/02 10:08:24;;;;;;;3.47;1.55;;;;;;;;;;4991737;28;20031;-76
2022/01/02 10:10:58;;;;;;;2.80;1.40;;;;;;;;;;4989870;28;20317;-78
2022/01/02 10:13:38;;;;;;;2.67;1.30;;;;;;;;;;4989790;28;20586;-77
2022/01/02 10:16:18;;;;;;;2.50;1.30;;;;;;;;;;4974110;28;20026;-76
2022/01/02 10:18:44;;;;;;;7.90;1.40;;;;;;;;;;4985265;28;20035;-77
2022/01/02 10:21:12;;;;;;;2.10;1.23;;;;;;;;;;4995541;28;20039;-76
2022/01/02 10:23:38;;;;;;;3.40;1.07;;;;;;;;;;4982264;28;20029;-76
2022/01/02 10:26:05;;;;;;;3.57;2.23;;;;;;;;;;4992285;28;20015;-76
2022/01/02 10:28:33;;;;;;;4.73;2.33;;;;;;;;;;4990494;28;20015;-76
2022/01/02 10:31:00;;;;;;;3.50;1.77;;;;;;;;;;5028222;23;20039;-76
2022/01/02 10:33:30;;;;;;;2.77;1.43;;;;;;;;;;4981651;28;20106;-76
2022/01/02 10:35:59;;;;;;;1.63;1.10;;;;;;;;;;4984124;28;20035;-76
2022/01/02 10:38:25;;;;;;;2.37;1.47;;;;;;;;;;4972797;28;20023;-76
2022/01/02 10:40:51;;;;;;;4.10;1.63;;;;;;;;;;4968971;28;20051;-76
2022/01/02 10:43:30;;;;;;;1.17;1.07;;;;;;;;;;4984003;28;20026;-76
2022/01/02 10:45:57;;;;;;;4.57;1.43;;;;;;;;;;4984597;28;20050;-76
2022/01/02 10:48:33;;;;;;;2.53;1.47;;;;;;;;;;4969548;28;20070;-77
2022/01/02 10:51:07;;;;;;;2.10;1.20;;;;;;;;;;4969695;28;20027;-77
2022/01/02 10:53:39;;;;;;;3.97;1.40;;;;;;;;;;4986167;28;20031;-77
2022/01/02 10:56:06;;;;;;;5.18;1.38;;;;;;;;;;4981276;28;20027;-76
2022/01/02 10:58:35;;;;;;;4.97;1.40;;;;;;;;;;4985701;28;20030;-76
2022/01/02 11:01:03;;;;;;;1.57;1.17;;;;;;;;;;4985063;28;20050;-76
2022/01/02 11:03:30;;;;;;;1.97;1.43;;;;;;;;;;4977461;28;20061;-76
2022/01/02 11:06:08;;;;;;;2.67;1.30;;;;;;;;;;4984395;28;20038;-76
2022/01/02 11:08:41;;;;;;;7.53;2.07;;;;;;;;;;4974281;28;20016;-76
2022/01/02 11:11:07;;;;;;;7.28;1.30;;;;;;;;;;4983697;28;20035;-77
2022/01/02 11:13:33;;;;;;;2.77;1.50;;;;;;;;;;4972959;28;20211;-78
2022/01/02 11:16:06;;;;;;;3.40;1.83;;;;;;;;;;4979236;28;20043;-78
2022/01/02 11:18:40;;;;;;;4.07;1.45;;;;;;;;;;4984198;28;20019;-76
2022/01/02 11:21:10;;;;;;;2.53;1.47;;;;;;;;;;4986514;28;20022;-78
2022/01/02 11:23:44;;;;;;;6.83;1.70;;;;;;;;;;4972478;28;20030;-77
2022/01/02 11:26:15;;;;;;;2.57;1.23;;;;;;;;;;4972406;28;20310;-77
2022/01/02 11:28:46;;;;;;;2.73;1.20;;;13.50;99.90;;;;;;4984029;28;20011;-77
2022/01/02 11:31:34;;;;;;;8.90;1.43;;;13.60;99.90;;;;;;4970249;28;20023;-77
2022/01/02 11:34:19;;;;;;;4.73;1.47;;;13.60;99.90;;;;;;4986257;28;20043;-77
2022/01/02 11:36:48;;;;;;;3.63;1.43;;;13.60;99.90;;;;;;4983573;28;20053;-77
2022/01/02 11:39:14;;;;;;;2.03;1.23;;;13.60;99.90;;;;;;4971848;28;20019;-77
2022/01/02 11:41:42;;;;;;;4.23;1.43;;;13.60;99.90;;;;;;4973067;28;20118;-77
2022/01/02 11:44:19;;;;;;;5.33;1.50;;;13.70;99.90;;;;;;4983589;28;20023;-76
2022/01/02 11:46:56;;;;;;;4.10;2.33;;;13.80;99.90;;;;;;4967674;28;20029;-76
2022/01/02 11:49:44;;;;;;;3.10;1.60;;;13.90;99.90;;;;;;4967967;28;20027;-77
2022/01/02 11:52:12;;;;;;;3.63;1.57;;;13.90;99.90;;;;;;4982112;28;20162;-79
2022/01/02 11:54:41;;;;;;;2.23;1.10;;;14.00;99.90;;;;;;4984965;28;20094;-76
2022/01/02 11:57:15;;;;;;;3.33;1.40;;;13.90;99.90;;;;;;4968587;28;20023;-77
2022/01/02 11:59:44;;;;;;;3.30;1.23;;;13.80;99.90;;;;;;4983491;28;20042;-75
2022/01/02 12:02:13;;;;;;;2.87;1.23;;;13.90;99.90;;;;;;4974572;28;20019;-77
2022/01/02 12:05:14;;;;;;;1.80;1.10;;;13.80;99.90;;;;;;4985505;28;20022;-78
2022/01/02 12:07:50;;;;;;;4.87;1.70;;;13.70;99.90;;;;;;4933717;28;20042;-77
2022/01/02 12:10:26;;;;;;;2.43;1.50;;;13.70;99.90;;;;;;4978622;28;20062;-77
2022/01/02 12:13:13;;;;;;;10.30;2.00;;;13.70;99.90;;;;;;4985257;28;20087;-77
2022/01/02 12:15:39;;;;;;;2.73;1.20;;;13.70;99.90;;;;;;4972812;28;20038;-77
2022/01/02 12:18:08;;;;;;;8.20;1.80;;;13.60;99.90;;;;;;4983410;28;20121;-77
2022/01/02 12:21:00;;;;;;;5.53;1.50;;;13.60;99.90;;;;;;4973421;28;20073;-77
2022/01/02 12:23:40;;;;;;;5.55;2.03;;;13.50;99.90;;;;;;4989392;28;20086;-77
2022/01/02 12:26:09;;;;;;;3.70;1.40;;;13.50;99.90;;;;;;4986175;28;20041;-78
2022/01/02 12:28:57;;;;;;;4.97;1.80;;;13.40;99.90;;;;;;4987429;28;20046;-76
2022/01/02 12:31:27;;;;;;;5.20;1.80;;;13.50;99.90;;;;;;4970522;28;20038;-78
2022/01/02 12:33:54;;;;;;;2.63;1.37;;;13.50;99.90;;;;;;4971774;28;20039;-76
2022/01/02 12:36:24;;;;;;;5.27;2.03;;;13.50;99.90;;;;;;4973645;28;20042;-78
2022/01/02 12:39:06;;;;;;;3.60;1.40;;;13.60;99.90;;;;;;4973603;28;20345;-76
2022/01/02 12:41:35;;;;;;;4.13;1.10;;;13.50;99.90;;;;;;4974961;28;20051;-80
2022/01/02 12:44:09;;;;;;;6.40;1.30;;;13.60;99.90;;;;;;4973709;28;20086;-77
2022/01/02 12:46:50;;;;;;;3.17;1.57;;;13.60;99.90;;;;;;4971226;28;20138;-76
2022/01/02 12:49:18;;;;;;;2.73;1.50;;;13.70;99.90;;;;;;4971561;28;20371;-77
2022/01/02 12:51:53;;;;;;;4.47;1.33;;;13.70;99.90;;;;;;4988324;28;20022;-77
2022/01/02 12:54:23;;;;;;;3.43;1.33;;;13.80;99.90;;;;;;4987845;28;20039;-77
2022/01/02 12:56:52;;;;;;;4.73;1.37;;;13.70;99.90;;;;;;4988917;28;20035;-76
2022/01/02 12:59:20;;;;;;;5.40;1.20;;;13.80;99.90;;;;;;4974775;28;20102;-76
2022/01/02 13:02:02;;;;;;;5.40;1.97;;;13.70;99.90;;;;;;4984326;28;20027;-76
2022/01/02 13:04:45;;;;;;;4.45;0.93;;;13.60;99.90;;;;;;4975976;28;20033;-77
2022/01/02 13:07:24;;;;;;;2.20;1.07;;;13.60;99.90;;;;;;4987472;28;20022;-77
2022/01/02 13:09:52;;;;;;;5.03;1.37;;;13.50;99.90;;;;;;4974448;28;20106;-77
2022/01/02 13:12:32;;;;;;;3.27;1.20;;;13.50;99.90;;;;;;4973223;28;20027;-78
2022/01/02 13:15:05;;;;;;;8.40;1.80;;;13.50;99.90;;;;;;4972542;28;20110;-78
2022/01/02 13:17:55;;;;;;;3.30;1.23;;;13.50;99.90;;;;;;4971437;28;20026;-77
2022/01/02 13:20:35;;;;;;;3.57;2.10;;;13.50;99.90;;;;;;4985608;28;20023;-77
2022/01/02 13:23:02;;;;;;;4.33;1.20;;;13.50;99.90;;;;;;4974417;28;20046;-77
2022/01/02 13:25:40;;;;;;;2.07;1.43;;;13.40;99.90;;;;;;4971359;28;20125;-76
2022/01/02 13:28:15;;;;;;;2.93;1.40;;;13.40;99.90;;;;;;4974074;28;20022;-78
2022/01/02 13:30:48;;;;;;;6.43;1.80;;;13.40;99.90;;;;;;4974964;28;20042;-76
2022/01/02 13:33:20;;;;;;;2.50;1.23;;;13.40;99.90;;;;;;4986938;28;20086;-77
2022/01/02 13:35:46;;;;;;;4.40;2.07;;;13.40;99.90;;;;;;4973903;28;20014;-78
2022/01/02 13:38:12;;;;;;;7.23;1.50;;;13.40;99.90;;;;;;4974139;28;20023;-78
2022/01/02 13:40:39;;;;;;;4.37;1.10;;;13.40;99.90;;;;;;4973826;28;20083;-77
2022/01/02 13:43:13;;;;;;;4.93;1.30;;;13.50;99.90;;;;;;4972420;28;20103;-77
2022/01/02 13:45:43;;;;;;;6.23;1.47;;;13.50;99.90;;;;;;4968887;28;20026;-77
2022/01/02 13:48:23;;;;;;;1.50;1.20;;;13.50;99.90;;;;;;4987011;28;20019;-77
2022/01/02 13:50:52;;;;;;;3.20;1.10;;;13.40;99.90;;;;;;4974903;28;20019;-77
2022/01/02 13:53:36;;;;;;;3.27;0.97;;;13.50;99.90;;;;;;4972647;28;20050;-77
2022/01/02 13:56:05;;;;;;;2.87;1.50;;;13.50;99.90;;;;;;4968795;28;20051;-76
2022/01/02 13:58:33;;;;;;;3.33;0.90;;;13.40;99.90;;;;;;4970763;28;20031;-77
2022/01/02 14:01:03;;;;;;;2.77;1.40;;;13.40;99.90;;;;;;4969745;28;20030;-76
2022/01/02 14:03:42;;;;;;;4.03;2.13;;;13.40;99.90;;;;;;4973481;28;20023;-78
2022/01/02 14:06:13;;;;;;;4.77;1.80;;;13.40;99.90;;;;;;4980564;28;20138;-78
2022/01/02 14:08:43;;;;;;;9.57;1.70;;;13.40;99.90;;;;;;4973848;28;20098;-76
2022/01/02 14:11:15;;;;;;;6.00;2.27;;;13.40;99.90;;;;;;4972546;28;20026;-77
2022/01/02 14:14:11;;;;;;;3.60;1.92;;;13.40;99.90;;;;;;4973029;28;20050;-77
2022/01/02 14:17:02;;;;;;;3.70;1.30;;;13.40;99.90;;;;;;4981814;28;20035;-77
2022/01/02 14:19:32;;;;;;;3.67;1.30;;;13.40;99.90;;;;;;4985890;28;20027;-77
2022/01/02 14:21:59;;;;;;;2.70;1.23;;;13.40;99.90;;;;;;4985321;28;20027;-77
2022/01/02 14:24:25;;;;;;;2.57;1.10;;;13.40;99.90;;;;;;4969877;28;20046;-77
2022/01/02 14:26:51;;;;;;;6.20;2.10;;;13.40;99.90;;;;;;4974921;28;20074;-77
2022/01/02 14:29:17;;;;;;;5.40;1.90;;;13.30;99.90;;;;;;4972958;28;20035;-77
2022/01/02 14:31:44;;;;;;;5.47;1.03;;;13.40;99.90;;;;;;4985097;28;20051;-77
2022/01/02 14:36:45;;;;;;;4.87;1.00;;;13.30;99.90;;;;;;4987502;26;20047;-79